Time;durP1;ratioP1;P1;durP2;ratioP2;P2;SDS_P1;SDS_P2;PMS_P1;PMS_P2;Temp;Humidity;BMP_temperature;BMP_pressure;BME280_temperature;BME280_humidity;BME280_pressure;Samples;Min_cycle;Max_cycle;Signal;HPM_P1;HPM_P2
2022/06/30 00:01:29;;;;;;;27.35;24.40;;;;;;;;;;5033081;27;93976;-71
2022/06/30 00:03:56;;;;;;;29.27;25.95;;;;;;;;;;5031403;27;94312;-71
2022/06/30 00:06:22;;;;;;;28.02;25.13;;;;;;;;;;5032049;27;92550;-71
2022/06/30 00:08:49;;;;;;;35.28;25.80;;;;;;;;;;5033038;27;94054;-71
2022/06/30 00:11:15;;;;;;;32.90;26.85;;;;;;;;;;5050360;27;93230;-71
2022/06/30 00:13:42;;;;;;;30.38;26.88;;;;;;;;;;5038400;27;91725;-71
2022/06/30 00:16:09;;;;;;;34.08;27.17;;;;;;;;;;5033369;27;94277;-71
2022/06/30 00:18:35;;;;;;;37.78;27.02;;;;;;;;;;5030793;27;92499;-71
2022/06/30 00:21:02;;;;;;;31.50;27.85;;;;;;;;;;5041541;27;94857;-71
2022/06/30 00:23:29;;;;;;;32.58;29.10;;;;;;;;;;5043150;27;93328;-71
2022/06/30 00:25:55;;;;;;;31.55;27.48;;;;;;;;;;5048486;27;92454;-71
2022/06/30 00:28:22;;;;;;;31.77;28.33;;;;;;;;;;5051384;27;93532;-71
2022/06/30 00:30:49;;;;;;;34.35;29.48;;;;;;;;;;5036213;27;93208;-71
2022/06/30 00:33:16;;;;;;;34.25;28.38;;;;;;;;;;5034992;27;93705;-71
2022/06/30 00:35:43;;;;;;;49.17;29.85;;;;;;;;;;5037957;27;93885;-71
2022/06/30 00:38:09;;;;;;;37.25;28.30;;;;;;;;;;5036643;27;91770;-71
2022/06/30 00:40:36;;;;;;;34.20;29.10;;;;;;;;;;5034714;27;93277;-71
2022/06/30 00:43:03;;;;;;;31.92;28.73;;;;;;;;;;5036627;27;94252;-71
2022/06/30 00:45:30;;;;;;;35.60;27.83;;;;;;;;;;5053469;27;94841;-71
2022/06/30 00:47:57;;;;;;;28.08;25.20;;;;;;;;;;5052037;27;95680;-71
2022/06/30 00:50:23;;;;;;;27.58;24.73;;;;;;;;;;5038540;27;93663;-71
2022/06/30 00:52:50;;;;;;;29.27;23.98;;;;;;;;;;5047775;27;93619;-71
2022/06/30 00:55:17;;;;;;;26.02;23.27;;;;;;;;;;5054427;27;93960;-71
2022/06/30 00:57:44;;;;;;;24.92;22.35;;;;;;;;;;5049666;27;93274;-71
2022/06/30 01:00:11;;;;;;;25.35;22.83;;;;;;;;;;5034291;27;92952;-71
2022/06/30 01:02:38;;;;;;;28.10;21.30;;;;;;;;;;5034281;27;92891;-71
2022/06/30 01:05:06;;;;;;;25.00;22.13;;;;;;;;;;5043927;27;93265;-71
2022/06/30 01:07:34;;;;;;;23.23;20.70;;;;;;;;;;5039969;27;93281;-71
2022/06/30 01:12:47;;;;;;;23.27;20.40;;;;;;;;;;5042143;27;92494;-70
2022/06/30 01:15:14;;;;;;;24.27;21.73;;;;;;;;;;5034052;27;93925;-71
2022/06/30 01:17:41;;;;;;;24.40;20.48;;;;;;;;;;5034218;27;94238;-71
2022/06/30 01:20:08;;;;;;;26.50;20.77;;;;;;;;;;5045591;27;93773;-70
2022/06/30 01:22:34;;;;;;;22.05;19.92;;;;;;;;;;5034005;27;94128;-70
2022/06/30 01:25:01;;;;;;;28.58;20.58;;;;;;;;;;5033913;27;92483;-70
2022/06/30 01:27:27;;;;;;;22.83;20.67;;;;;;;;;;5040845;27;93641;-71
2022/06/30 01:29:54;;;;;;;22.80;20.42;;;;;;;;;;5036815;27;93463;-70
2022/06/30 01:32:20;;;;;;;22.67;20.38;;;;;;;;;;5042697;27;92475;-70
2022/06/30 01:34:46;;;;;;;25.45;21.67;;;;;;;;;;5031977;27;94870;-71
2022/06/30 01:37:13;;;;;;;24.05;20.73;;;;;;;;;;5036177;27;93464;-71
2022/06/30 01:39:41;;;;;;;25.85;21.60;;;;;;;;;;5038252;27;93861;-71
2022/06/30 01:42:07;;;;;;;22.73;20.38;;;;;;;;;;5055645;27;92420;-71
2022/06/30 01:44:34;;;;;;;22.63;20.50;;;;;;;;;;5033331;27;93044;-71
2022/06/30 01:47:00;;;;;;;20.25;18.38;;;;;;;;;;5041016;27;95276;-71
2022/06/30 01:49:27;;;;;;;21.23;19.15;;;;;;;;;;5041620;27;93641;-71
2022/06/30 01:51:53;;;;;;;21.60;19.38;;;;;;;;;;5033977;27;91773;-71
2022/06/30 01:54:19;;;;;;;20.42;18.27;;;;;;;;;;5034707;27;92906;-71
2022/06/30 01:56:47;;;;;;;20.95;18.60;;;;;;;;;;5045690;27;93594;-71
2022/06/30 01:59:13;;;;;;;19.55;17.55;;;;;;;;;;5043937;27;94884;-71
2022/06/30 02:01:40;;;;;;;18.83;17.23;;;;;;;;;;5040127;27;96574;-71
2022/06/30 02:04:50;;;;;;;19.38;17.40;;;;;;;;;;5033595;27;92482;-71
2022/06/30 02:06:55;;;;;;;19.85;18.02;;;;;;;;;;5030338;27;93502;-71
2022/06/30 02:09:22;;;;;;;19.27;17.52;;;;;;;;;;5043729;27;93312;-71
2022/06/30 02:12:44;;;;;;;19.83;17.27;;;;;;;;;;5044810;27;92523;-71
2022/06/30 02:14:35;;;;;;;20.10;18.15;;;;;;;;;;5034661;27;93240;-71
2022/06/30 02:17:01;;;;;;;19.13;17.33;;;;;;;;;;5033779;27;93164;-71
2022/06/30 02:19:28;;;;;;;19.70;17.45;;;;;;;;;;5033913;27;92442;-71
2022/06/30 02:21:54;;;;;;;21.58;18.33;;;;;;;;;;5045279;27;92850;-71
2022/06/30 02:24:20;;;;;;;19.80;17.75;;;;;;;;;;5054229;27;95836;-71
2022/06/30 02:26:48;;;;;;;20.27;18.42;;;;;;;;;;5031754;27;95914;-71
2022/06/30 02:29:14;;;;;;;19.80;17.73;;;;;;;;;;5048452;27;94110;-71
2022/06/30 02:31:40;;;;;;;19.35;17.42;;;;;;;;;;5041528;27;93446;-71
2022/06/30 02:34:07;;;;;;;20.20;18.13;;;;;;;;;;5033553;27;93496;-71
2022/06/30 02:36:33;;;;;;;21.25;18.48;;;;;;;;;;5033803;27;93605;-71
2022/06/30 02:38:59;;;;;;;20.30;18.42;;;;;;;;;;5032889;27;92681;-71
2022/06/30 02:41:26;;;;;;;20.98;18.85;;;;;;;;;;5040493;27;92940;-70
2022/06/30 02:43:52;;;;;;;21.55;18.67;;;;;;;;;;5034955;27;93391;-71
2022/06/30 02:46:19;;;;;;;19.33;17.25;;;;;;;;;;5041543;27;92490;-71
2022/06/30 02:48:45;;;;;;;20.58;17.85;;;;;;;;;;5031407;27;95760;-71
2022/06/30 02:51:12;;;;;;;20.60;18.45;;;;;;;;;;5047995;27;92491;-71
2022/06/30 02:53:38;;;;;;;19.02;17.20;;;;;;;;;;5039340;27;93574;-71
2022/06/30 02:56:04;;;;;;;19.58;17.67;;;;;;;;;;5036093;27;93158;-71
2022/06/30 02:58:31;;;;;;;19.80;17.85;;;;;;;;;;5037726;27;92652;-71
2022/06/30 03:00:57;;;;;;;20.30;18.25;;;;;;;;;;5033494;27;94373;-71
2022/06/30 03:03:23;;;;;;;22.48;17.67;;;;;;;;;;5040526;27;93474;-71
2022/06/30 03:05:50;;;;;;;24.92;16.88;;;;;;;;;;5032316;27;91907;-71
2022/06/30 03:08:16;;;;;;;20.05;17.38;;;;;;;;;;5042048;27;92499;-71
2022/06/30 03:10:42;;;;;;;23.00;18.20;;;;;;;;;;5034083;27;94019;-71
2022/06/30 03:13:09;;;;;;;18.73;17.02;;;;;;;;;;5045292;27;94928;-70
2022/06/30 03:15:36;;;;;;;17.50;15.85;;;;;;;;;;5038815;27;92443;-71
2022/06/30 03:18:02;;;;;;;17.88;16.38;;;;;;;;;;5039458;27;92528;-70
2022/06/30 03:20:29;;;;;;;23.98;16.50;;;;;;;;;;5045361;27;92948;-71
2022/06/30 03:22:55;;;;;;;16.85;15.40;;;;;;;;;;5034504;27;93136;-71
2022/06/30 03:25:22;;;;;;;17.73;16.08;;;;;;;;;;5049064;27;92557;-71
2022/06/30 03:27:48;;;;;;;19.92;15.90;;;;;;;;;;5031035;27;93154;-71
2022/06/30 03:30:14;;;;;;;17.20;15.70;;;;;;;;;;5044229;27;92617;-71
2022/06/30 03:32:41;;;;;;;19.67;16.52;;;;;;;;;;5039676;27;92619;-71
2022/06/30 03:35:09;;;;;;;19.80;17.30;;;;;;;;;;5039672;27;93988;-71
2022/06/30 03:37:35;;;;;;;18.50;16.83;;;;;;;;;;5036780;27;95880;-71
2022/06/30 03:40:01;;;;;;;18.92;17.15;;;;;;;;;;5043062;27;95574;-71
2022/06/30 03:42:28;;;;;;;17.77;15.93;;;;;;;;;;5040865;27;93593;-71
2022/06/30 03:44:54;;;;;;;18.63;16.77;;;;;;;;;;5032824;27;92477;-71
2022/06/30 03:47:20;;;;;;;18.67;16.73;;;;;;;;;;5039066;27;93327;-71
2022/06/30 03:49:47;;;;;;;19.85;18.02;;;;;;;;;;5051235;27;94091;-71
2022/06/30 03:52:13;;;;;;;18.58;16.70;;;;;;;;;;5040347;27;92523;-71
2022/06/30 03:54:39;;;;;;;20.38;17.65;;;;;;;;;;5040231;27;93192;-71
2022/06/30 03:57:06;;;;;;;18.05;16.15;;;;;;;;;;5032040;27;92561;-71
2022/06/30 03:59:35;;;;;;;18.45;16.83;;;;;;;;;;5031445;27;93082;-71
2022/06/30 04:02:01;;;;;;;19.17;17.38;;;;;;;;;;5038996;27;96452;-71
2022/06/30 04:04:28;;;;;;;23.27;18.05;;;;;;;;;;5039360;27;92512;-71
2022/06/30 04:06:54;;;;;;;23.45;17.77;;;;;;;;;;5052320;27;92786;-71
2022/06/30 04:09:20;;;;;;;18.83;16.98;;;;;;;;;;5036000;27;94177;-71
2022/06/30 04:11:47;;;;;;;22.27;18.08;;;;;;;;;;5046227;27;92628;-71
2022/06/30 04:14:13;;;;;;;19.45;17.60;;;;;;;;;;5035524;27;94077;-71
2022/06/30 04:16:39;;;;;;;19.35;17.42;;;;;;;;;;5043178;27;92446;-71
2022/06/30 04:19:06;;;;;;;18.73;16.77;;;;;;;;;;5046723;27;94283;-71
2022/06/30 04:21:32;;;;;;;17.92;16.17;;;;;;;;;;5046775;27;93758;-71
2022/06/30 04:23:59;;;;;;;19.40;17.40;;;;;;;;;;5046372;27;92500;-71
2022/06/30 04:26:25;;;;;;;20.05;18.05;;;;;;;;;;5047950;27;94838;-70
2022/06/30 04:28:51;;;;;;;21.33;17.05;;;;;;;;;;5034942;27;94283;-71
2022/06/30 04:34:03;;;;;;;19.35;17.38;;;;;;;;;;5039323;27;92458;-70
2022/06/30 04:36:30;;;;;;;18.25;16.50;;;;;;;;;;5037337;27;92606;-70
2022/06/30 04:38:56;;;;;;;19.05;16.77;;;;;;;;;;5033612;27;93047;-69
2022/06/30 04:41:25;;;;;;;18.63;16.83;;;;;;;;;;5034397;27;93419;-70
2022/06/30 04:43:55;;;;;;;19.23;17.33;;;;;;;;;;5042124;27;91768;-69
2022/06/30 04:46:22;;;;;;;20.52;16.80;;;;;;;;;;5046112;27;93322;-69
2022/06/30 04:48:49;;;;;;;18.73;16.83;;;;;;;;;;5045876;27;94167;-70
2022/06/30 04:51:16;;;;;;;19.77;17.65;;;;;;;;;;5048039;27;94917;-69
2022/06/30 04:53:42;;;;;;;19.55;17.33;;;;;;;;;;5039265;27;95335;-70
2022/06/30 04:56:10;;;;;;;18.55;16.77;;;;;;;;;;5036986;27;94235;-69
2022/06/30 04:58:36;;;;;;;19.70;15.70;;;;;;;;;;5042418;27;92619;-69
2022/06/30 05:01:03;;;;;;;19.98;17.85;;;;;;;;;;5033159;27;93270;-69
2022/06/30 05:03:30;;;;;;;19.25;17.20;;;;;;;;;;5042463;27;92485;-69
2022/06/30 05:05:57;;;;;;;18.83;16.98;;;;;;;;;;5034831;27;94143;-70
2022/06/30 05:08:23;;;;;;;18.80;16.88;;;;;;;;;;5037164;27;92152;-70
2022/06/30 05:10:50;;;;;;;19.55;17.70;;;;;;;;;;5038464;27;92913;-70
2022/06/30 05:13:21;;;;;;;22.27;17.55;;;;;;;;;;5036366;27;93734;-69
2022/06/30 05:15:47;;;;;;;19.17;17.10;;;;;;;;;;5035192;27;97082;-70
2022/06/30 05:18:14;;;;;;;19.70;17.67;;;;;;;;;;5037558;27;92432;-69
2022/06/30 05:20:40;;;;;;;20.65;18.05;;;;;;;;;;5050893;27;93769;-70
2022/06/30 05:23:08;;;;;;;22.00;19.02;;;;;;;;;;5040361;27;92494;-70
2022/06/30 05:28:21;;;;;;;19.83;18.02;;;;;;;;;;5038615;27;94470;-70
2022/06/30 05:30:48;;;;;;;19.88;17.13;;;;;;;;;;5034256;27;93072;-71
2022/06/30 05:33:15;;;;;;;22.00;16.83;;;;;;;;;;5039385;27;92993;-69
2022/06/30 05:35:42;;;;;;;19.40;17.60;;;;;;;;;;5051912;27;92417;-70
2022/06/30 05:38:08;;;;;;;20.02;18.00;;;;;;;;;;5034645;27;92997;-71
2022/06/30 05:40:35;;;;;;;19.58;17.73;;;;;;;;;;5041091;27;94883;-71
2022/06/30 05:43:01;;;;;;;19.30;17.45;;;;;;;;;;5042437;27;93638;-70
2022/06/30 05:45:27;;;;;;;18.73;16.83;;;;;;;;;;5047318;27;93055;-71
2022/06/30 05:47:54;;;;;;;20.42;16.52;;;;;;;;;;5044563;27;94190;-70
2022/06/30 05:50:22;;;;;;;17.60;15.73;;;;;;;;;;5044860;27;92474;-70
2022/06/30 05:52:51;;;;;;;19.85;14.85;;;;;;;;;;5053468;27;93126;-71
2022/06/30 05:55:18;;;;;;;16.35;14.75;;;;;;;;;;5043079;27;94277;-71
2022/06/30 05:57:54;;;;;;;17.02;14.90;;;;;;;;;;5033049;27;92961;-70
2022/06/30 06:00:22;;;;;;;21.23;14.90;;;;;;;;;;5047702;27;93374;-70
2022/06/30 06:02:48;;;;;;;16.77;13.70;;;;;;;;;;5042266;27;93577;-71
2022/06/30 06:05:19;;;;;;;15.00;13.07;;;;;;;;;;5036687;27;95008;-72
2022/06/30 06:07:46;;;;;;;14.75;13.35;;;;;;;;;;5031196;27;94331;-72
2022/06/30 06:10:15;;;;;;;19.27;13.27;;;;;;;;;;5031566;27;94387;-72
2022/06/30 06:12:45;;;;;;;17.77;13.00;;;;;;;;;;5039674;27;94191;-72
2022/06/30 06:15:11;;;;;;;16.80;13.18;;;;;;;;;;5035682;27;93311;-72
2022/06/30 06:17:40;;;;;;;13.60;12.02;;;;;;;;;;5034131;27;92936;-72
2022/06/30 06:20:08;;;;;;;16.02;12.00;;;;;;;;;;5035415;27;94333;-72
2022/06/30 06:22:34;;;;;;;13.90;12.35;;;;;;;;;;5041040;27;92703;-72
2022/06/30 06:25:00;;;;;;;14.27;12.02;;;;;;;;;;5036876;27;93634;-72
2022/06/30 06:27:27;;;;;;;13.93;12.40;;;;;;;;;;5033273;27;94152;-72
2022/06/30 06:29:53;;;;;;;21.42;12.65;;;;;;;;;;5033540;27;96712;-72
2022/06/30 06:32:22;;;;;;;16.20;12.18;;;;;;;;;;5033736;27;96285;-72
2022/06/30 06:34:48;;;;;;;17.67;12.32;;;;;;;;;;5036282;27;93274;-72
2022/06/30 06:37:14;;;;;;;13.82;12.10;;;;;;;;;;5048127;27;92524;-72
2022/06/30 06:39:41;;;;;;;14.50;10.98;;;;;;;;;;5035875;27;92580;-72
2022/06/30 06:42:07;;;;;;;14.52;11.82;;;;;;;;;;5051475;27;94307;-73
2022/06/30 06:44:38;;;;;;;14.25;12.60;;;;;;;;;;5047513;27;92485;-72
2022/06/30 06:47:05;;;;;;;18.17;12.13;;;;;;;;;;5041340;27;92985;-72
2022/06/30 06:49:31;;;;;;;16.88;12.13;;;;;;;;;;5043324;27;92465;-72
2022/06/30 06:51:57;;;;;;;13.25;11.85;;;;;;;;;;5031649;27;93698;-72
2022/06/30 06:54:24;;;;;;;13.20;11.80;;;;;;;;;;5036307;27;96914;-72
2022/06/30 06:56:50;;;;;;;13.88;11.82;;;;;;;;;;5036819;27;94276;-72
2022/06/30 06:59:16;;;;;;;13.05;11.68;;;;;;;;;;5033395;27;94111;-72
2022/06/30 07:01:43;;;;;;;19.30;10.95;;;;;;;;;;5038860;27;94098;-73
2022/06/30 07:04:09;;;;;;;12.35;10.60;;;;;;;;;;5049608;27;92472;-72
2022/06/30 07:06:36;;;;;;;16.02;11.75;;;;;;;;;;5038486;27;94069;-72
2022/06/30 07:09:02;;;;;;;17.52;11.88;;;;;;;;;;5033394;27;94685;-72
2022/06/30 07:11:29;;;;;;;15.68;11.52;;;;;;;;;;5035209;27;93973;-72
2022/06/30 07:13:55;;;;;;;14.27;11.15;;;;;;;;;;5035864;27;94422;-72
2022/06/30 07:16:21;;;;;;;16.70;11.98;;;;;;;;;;5034575;27;94302;-72
2022/06/30 07:18:48;;;;;;;14.15;11.90;;;;;;;;;;5033944;27;94903;-72
2022/06/30 07:21:15;;;;;;;18.85;12.75;;;;;;;;;;5036302;27;94394;-72
2022/06/30 07:23:42;;;;;;;13.68;11.93;;;;;;;;;;5034195;27;93121;-72
2022/06/30 07:26:11;;;;;;;15.60;11.57;;;;;;;;;;5033863;27;93935;-72
2022/06/30 07:28:37;;;;;;;15.52;11.35;;;;;;;;;;5036854;27;94153;-72
2022/06/30 07:31:20;;;;;;;13.48;10.65;;;;;;;;;;5035461;27;94011;-72
2022/06/30 07:33:47;;;;;;;11.77;9.07;;;;;;;;;;5034026;27;94405;-72
2022/06/30 07:36:14;;;;;;;13.10;8.35;;;;;;;;;;5032718;27;92262;-73
2022/06/30 07:38:40;;;;;;;16.30;8.30;;;;;;;;;;5035333;27;93106;-74
2022/06/30 07:41:07;;;;;;;10.10;7.53;;;;;;;;;;5031998;27;93517;-72
2022/06/30 07:43:33;;;;;;;16.40;7.65;;;;;;;;;;5037603;27;94930;-72
2022/06/30 07:45:59;;;;;;;9.18;5.68;;;;;;;;;;5031332;27;96270;-72
2022/06/30 07:48:26;;;;;;;7.65;5.45;;;;;;;;;;5034991;27;94038;-72
2022/06/30 07:50:52;;;;;;;8.00;5.03;;;;;;;;;;5037737;27;92850;-71
2022/06/30 07:53:18;;;;;;;10.82;4.95;;;;;;;;;;5034985;27;94708;-71
2022/06/30 07:55:45;;;;;;;10.10;4.53;;;;;;;;;;5039113;27;96303;-72
2022/06/30 07:58:11;;;;;;;7.38;4.07;;;;;;;;;;5036620;27;95206;-71
2022/06/30 08:00:38;;;;;;;7.97;4.90;;;;;;;;;;5033796;27;93009;-72
2022/06/30 08:03:04;;;;;;;13.68;5.18;;;;;;;;;;5041754;27;92583;-72
2022/06/30 08:05:30;;;;;;;6.90;4.70;;;;;;;;;;5031436;27;93978;-74
2022/06/30 08:07:57;;;;;;;9.00;4.88;;;;;;;;;;5035208;27;96490;-72
2022/06/30 08:10:23;;;;;;;7.95;4.50;;;;;;;;;;5033564;27;94742;-72
2022/06/30 08:12:50;;;;;;;10.07;4.47;;;;;;;;;;5033156;27;93641;-72
2022/06/30 08:15:16;;;;;;;10.05;5.45;;;;;;;;;;5036467;27;92565;-72
2022/06/30 08:17:42;;;;;;;5.50;4.20;;;;;;;;;;5031833;27;94289;-71
2022/06/30 08:20:09;;;;;;;6.18;4.30;;;;;;;;;;5032098;27;93221;-72
2022/06/30 08:22:35;;;;;;;14.20;4.53;;;;;;;;;;5032593;27;92510;-72
2022/06/30 08:25:02;;;;;;;7.55;4.47;;;;;;;;;;5037429;27;93299;-72
2022/06/30 08:27:28;;;;;;;9.20;3.88;;;;;;;;;;5036481;27;94623;-72
2022/06/30 08:29:55;;;;;;;8.05;4.20;;;;;;;;;;5042937;27;94204;-72
2022/06/30 08:32:22;;;;;;;5.97;3.55;;;;;;;;;;5042681;27;96932;-72
2022/06/30 08:34:49;;;;;;;13.32;4.97;;;;;;;;;;5034365;27;93379;-72
2022/06/30 08:37:15;;;;;;;10.30;4.38;;;;;;;;;;5031076;27;94148;-72
2022/06/30 08:42:27;;;;;;;7.80;3.38;;;;;;;;;;5031702;27;93842;-72
2022/06/30 08:47:39;;;;;;;9.50;4.05;;;;;;;;;;5031988;27;92955;-72
2022/06/30 08:50:08;;;;;;;6.22;3.28;;;;;;;;;;5033088;27;91682;-72
2022/06/30 08:52:40;;;;;;;7.22;3.95;;;;;;;;;;5040958;27;93728;-72
2022/06/30 08:55:08;;;;;;;6.97;3.53;;;;;;;;;;5038002;27;93732;-72
2022/06/30 08:57:35;;;;;;;8.68;3.80;;;;;;;;;;5037096;27;96137;-73
2022/06/30 09:00:02;;;;;;;10.75;3.47;;;;;;;;;;5034413;27;93350;-72
2022/06/30 09:02:28;;;;;;;11.30;3.83;;;;;;;;;;5037152;27;94151;-72
2022/06/30 09:04:55;;;;;;;9.50;3.22;;;;;;;;;;5037402;27;93032;-72
2022/06/30 09:07:21;;;;;;;6.97;3.80;;;;;;;;;;5042559;27;94107;-72
2022/06/30 09:09:47;;;;;;;10.18;3.50;;;;;;;;;;5043857;27;92557;-72
2022/06/30 09:12:15;;;;;;;5.57;3.47;;;;;;;;;;5045581;27;93164;-72
2022/06/30 09:14:42;;;;;;;6.90;3.10;;;;;;;;;;5035254;27;93406;-72
2022/06/30 09:17:16;;;;;;;8.10;3.97;;;;;;;;;;5043714;27;92875;-72
2022/06/30 09:19:53;;;;;;;10.30;3.20;;;;;;;;;;5035901;27;93823;-72
2022/06/30 09:22:21;;;;;;;9.88;3.78;;;;;;;;;;5040474;27;94921;-72
2022/06/30 09:24:53;;;;;;;8.02;3.30;;;;;;;;;;5033782;27;95355;-72
2022/06/30 09:27:20;;;;;;;8.57;3.88;;;;;;;;;;5033850;27;93646;-72
2022/06/30 09:29:48;;;;;;;7.82;4.10;;;;;;;;;;5033781;27;92796;-72
2022/06/30 09:32:46;;;;;;;9.57;3.90;;;;;;;;;;5034672;27;92830;-72
2022/06/30 09:35:13;;;;;;;9.40;4.25;;;;;;;;;;5032156;27;93981;-72
2022/06/30 09:37:40;;;;;;;12.80;3.70;;;;;;;;;;5034750;27;92578;-72
2022/06/30 09:40:07;;;;;;;9.65;3.33;;;;;;;;;;5037462;27;92919;-72
2022/06/30 09:42:46;;;;;;;8.93;2.70;;;;;;;;;;5040357;27;93002;-72
2022/06/30 09:45:39;;;;;;;8.07;3.30;;;;;;;;;;5044755;27;92649;-72
2022/06/30 09:48:06;;;;;;;7.07;2.85;;;;;;;;;;5042477;27;95702;-72
2022/06/30 09:50:33;;;;;;;6.93;2.70;;;;;;;;;;5040720;27;92584;-72
2022/06/30 09:53:05;;;;;;;11.30;3.08;;;;;;;;;;5034005;27;94754;-72
2022/06/30 09:55:38;;;;;;;6.63;2.78;;;;;;;;;;5035581;27;94355;-72
2022/06/30 09:58:05;;;;;;;13.40;3.00;;;;;;;;;;5034368;27;93224;-72
2022/06/30 10:00:41;;;;;;;16.08;3.08;;;;;;;;;;5039656;27;93997;-72
2022/06/30 10:03:07;;;;;;;11.88;3.22;;;;;;;;;;5054173;27;94120;-72
2022/06/30 10:05:34;;;;;;;8.23;3.05;;;;;;;;;;5034897;27;94195;-72
2022/06/30 10:08:00;;;;;;;6.30;3.15;;;;;;;;;;5032961;27;94093;-72
2022/06/30 10:10:27;;;;;;;6.95;2.53;;;;;;;;;;5032913;27;94530;-72
2022/06/30 10:12:54;;;;;;;10.77;2.80;;;;;;;;;;5047172;27;94899;-73
2022/06/30 10:15:21;;;;;;;6.68;2.40;;;;;;;;;;5037505;27;93489;-72
2022/06/30 10:17:49;;;;;;;12.23;2.70;;;;;;;;;;5033510;27;92879;-72
2022/06/30 10:20:19;;;;;;;5.22;2.65;;;;;;;;;;5036074;27;94107;-72
2022/06/30 10:22:45;;;;;;;5.22;2.40;;;;;;;;;;5032831;27;94012;-72
2022/06/30 10:25:12;;;;;;;4.28;2.05;;;;;;;;;;5037741;27;92664;-72
2022/06/30 10:27:38;;;;;;;8.60;2.40;;;;;;;;;;5034140;27;94125;-72
2022/06/30 10:30:09;;;;;;;5.53;2.25;;;;;;;;;;5035099;27;92724;-72
2022/06/30 10:32:55;;;;;;;6.23;2.03;;;;;;;;;;5034096;27;92943;-72
2022/06/30 10:35:40;;;;;;;6.00;2.20;;;;;;;;;;5034605;27;94531;-72
2022/06/30 10:38:14;;;;;;;7.15;2.20;;;;;;;;;;5031345;27;95498;-72
2022/06/30 10:40:59;;;;;;;9.57;2.78;;;;;;;;;;5033127;27;96418;-72
2022/06/30 10:43:32;;;;;;;6.43;2.17;;;;;;;;;;5034171;27;94036;-72
2022/06/30 10:45:59;;;;;;;7.85;2.20;;;;;;;;;;5035930;27;93280;-72
2022/06/30 10:48:29;;;;;;;8.18;2.35;;;;;;;;;;5034354;27;93852;-72
2022/06/30 10:50:56;;;;;;;4.55;1.98;;;;;;;;;;5033376;27;93293;-72
2022/06/30 10:53:38;;;;;;;4.82;2.08;;;;;;;;;;5033028;27;93057;-72
2022/06/30 10:56:04;;;;;;;4.63;2.10;;;;;;;;;;5033054;27;92989;-72
2022/06/30 10:58:31;;;;;;;6.53;2.08;;;;;;;;;;5042531;27;92544;-71
2022/06/30 11:01:00;;;;;;;3.90;2.17;;;;;;;;;;5047649;27;94236;-72
2022/06/30 11:03:30;;;;;;;4.85;2.10;;;;;;;;;;5033491;27;95742;-72
2022/06/30 11:05:57;;;;;;;6.05;2.42;;;;;;;;;;5044900;27;92912;-71
2022/06/30 11:08:39;;;;;;;4.57;1.90;;;;;;;;;;5034991;27;93121;-71
2022/06/30 11:11:23;;;;;;;5.65;2.17;;;;;;;;;;5031051;27;93267;-72
2022/06/30 11:14:02;;;;;;;3.65;1.85;;;;;;;;;;5039047;27;92801;-71
2022/06/30 11:16:29;;;;;;;3.28;1.92;;;;;;;;;;5033314;27;94264;-71
2022/06/30 11:18:56;;;;;;;3.63;1.98;;;;;;;;;;5041908;27;92438;-72
2022/06/30 11:21:22;;;;;;;4.93;1.73;;;;;;;;;;5034681;27;94224;-71
2022/06/30 11:23:50;;;;;;;4.57;1.45;;;;;;;;;;5032319;27;93146;-71
2022/06/30 11:29:04;;;;;;;3.83;1.70;;;;;;;;;;5042944;27;94808;-71
2022/06/30 11:31:34;;;;;;;6.20;1.75;;;;;;;;;;5038651;27;93332;-71
2022/06/30 11:34:02;;;;;;;3.13;1.60;;;;;;;;;;5031562;27;93066;-71
2022/06/30 11:36:29;;;;;;;3.88;1.60;;;;;;;;;;5033150;27;94283;-71
2022/06/30 11:38:56;;;;;;;5.03;1.65;;;;;;;;;;5048308;27;92466;-71
2022/06/30 11:44:09;;;;;;;2.88;1.83;;;;;;;;;;5032281;27;94130;-71
2022/06/30 11:46:54;;;;;;;4.65;1.90;;;;;;;;;;5032367;27;91769;-71
2022/06/30 11:49:22;;;;;;;4.95;2.03;;;;;;;;;;5031832;27;92711;-71
2022/06/30 11:51:49;;;;;;;3.58;2.00;;;;;;;;;;5041806;27;93280;-71
2022/06/30 11:54:16;;;;;;;4.68;2.05;;;;;;;;;;5032971;27;95115;-72
2022/06/30 11:56:43;;;;;;;3.28;1.90;;;;;;;;;;5030417;27;94310;-72
2022/06/30 11:59:09;;;;;;;3.95;2.00;;;;;;;;;;5032961;27;92617;-71
2022/06/30 12:01:35;;;;;;;2.35;2.15;;;;;;;;;;5031921;27;93489;-72
2022/06/30 12:04:15;;;;;;;7.05;2.15;;;;;;;;;;5032948;27;94232;-72
2022/06/30 12:06:41;;;;;;;2.63;1.60;;;;;;;;;;5031465;27;93380;-70
2022/06/30 12:09:08;;;;;;;2.70;1.60;;;;;;;;;;5031633;27;94012;-74
2022/06/30 12:11:35;;;;;;;3.03;1.63;;;;;;;;;;5037277;27;93538;-71
2022/06/30 12:14:02;;;;;;;4.38;1.90;;;;;;;;;;5032376;27;92454;-71
2022/06/30 12:16:29;;;;;;;3.40;2.15;;;;;;;;;;5034418;27;94201;-71
2022/06/30 12:18:55;;;;;;;6.53;2.47;;;;;;;;;;5029406;27;94987;-71
2022/06/30 12:21:22;;;;;;;7.30;2.35;;;;;;;;;;5037230;27;95330;-70
2022/06/30 12:23:49;;;;;;;8.80;2.38;;;;;;;;;;5030431;27;93331;-71
2022/06/30 12:26:19;;;;;;;4.47;2.45;;;;;;;;;;5034875;27;92606;-71
2022/06/30 12:28:51;;;;;;;3.83;2.17;;;;;;;;;;5044287;27;94149;-71
2022/06/30 12:31:22;;;;;;;4.68;1.95;;;;;;;;;;5042589;27;94516;-72
2022/06/30 12:33:49;;;;;;;5.13;2.37;;;;;;;;;;5035555;27;93057;-71
2022/06/30 12:36:16;;;;;;;3.70;2.22;;;;;;;;;;5038805;27;94384;-70
2022/06/30 12:38:42;;;;;;;4.15;2.20;;;;;;;;;;5035983;27;93156;-71
2022/06/30 12:41:10;;;;;;;5.35;2.13;;;;;;;;;;5035517;27;92946;-71
2022/06/30 12:43:44;;;;;;;5.50;1.40;;;;;;;;;;5032981;27;96443;-71
2022/06/30 12:46:11;;;;;;;7.65;1.98;;;;;;;;;;5053340;27;93099;-71
2022/06/30 12:48:46;;;;;;;9.82;2.15;;;;;;;;;;5050509;27;93811;-71
2022/06/30 12:51:13;;;;;;;12.50;2.10;;;;;;;;;;5036366;27;94626;-71
2022/06/30 12:53:40;;;;;;;4.97;2.30;;;;;;;;;;5050725;27;92603;-71
2022/06/30 12:56:08;;;;;;;6.78;1.95;;;;;;;;;;5044393;27;93968;-70
2022/06/30 12:58:53;;;;;;;8.23;2.30;;;;;;;;;;5037432;27;93153;-71
2022/06/30 13:01:27;;;;;;;6.70;1.80;;;;;;;;;;5036304;27;94224;-71
2022/06/30 13:04:04;;;;;;;2.03;1.48;;;;;;;;;;5035336;27;94543;-72
2022/06/30 13:06:32;;;;;;;4.95;1.73;;;;;;;;;;5044501;27;92617;-71
2022/06/30 13:09:03;;;;;;;3.58;1.73;;;;;;;;;;5040791;27;94888;-71
2022/06/30 13:11:30;;;;;;;4.10;1.98;;;;;;;;;;5045282;27;94282;-71
2022/06/30 13:13:56;;;;;;;2.70;1.70;;;;;;;;;;5045033;27;94260;-71
2022/06/30 13:16:23;;;;;;;5.75;2.00;;;;;;;;;;5036150;27;96108;-71
2022/06/30 13:18:53;;;;;;;8.40;1.88;;;;;;;;;;5038979;27;94783;-71
2022/06/30 13:21:20;;;;;;;3.22;1.90;;;;;;;;;;5047639;27;92491;-70
2022/06/30 13:23:46;;;;;;;9.27;2.10;;;;;;;;;;5037508;27;93746;-71
2022/06/30 13:26:13;;;;;;;6.43;1.80;;;;;;;;;;5034385;27;91749;-71
2022/06/30 13:28:40;;;;;;;5.38;2.50;;;;;;;;;;5034366;27;92813;-71
2022/06/30 13:31:07;;;;;;;2.20;1.95;;;;;;;;;;5044992;27;93763;-71
2022/06/30 13:33:34;;;;;;;3.45;1.90;;;;;;;;;;5033015;27;94947;-71
2022/06/30 13:36:04;;;;;;;3.50;2.38;;;;;;;;;;5038405;27;95510;-71
2022/06/30 13:38:30;;;;;;;3.63;1.83;;;;;;;;;;5037479;27;93558;-71
2022/06/30 13:40:57;;;;;;;5.20;2.63;;;;;;;;;;5039358;27;92453;-71
2022/06/30 13:43:23;;;;;;;4.63;2.17;;;;;;;;;;5036341;27;94115;-71
2022/06/30 13:45:50;;;;;;;7.72;2.40;;;;;;;;;;5042287;27;93783;-71
2022/06/30 13:48:16;;;;;;;8.48;2.38;;;;;;;;;;5035904;27;93741;-71
2022/06/30 13:50:43;;;;;;;5.65;2.45;;;;;;;;;;5052019;27;93412;-71
2022/06/30 13:53:09;;;;;;;2.15;1.83;;;;;;;;;;5036152;27;92476;-71
2022/06/30 13:55:36;;;;;;;6.10;2.30;;;;;;;;;;5034134;27;94470;-71
2022/06/30 13:58:03;;;;;;;5.07;2.22;;;;;;;;;;5032312;27;95807;-72
2022/06/30 14:00:29;;;;;;;4.78;1.98;;;;;;;;;;5034931;27;92469;-71
2022/06/30 14:02:56;;;;;;;3.83;2.20;;;;;;;;;;5033117;27;93920;-71
2022/06/30 14:05:22;;;;;;;2.55;2.00;;;;;;;;;;5036711;27;93328;-71
2022/06/30 14:07:49;;;;;;;4.70;2.13;;;;;;;;;;5033990;27;92553;-71
2022/06/30 14:10:15;;;;;;;3.95;2.42;;;;;;;;;;5042244;27;94221;-70
2022/06/30 14:12:41;;;;;;;6.13;2.22;;;;;;;;;;5034302;27;92444;-70
2022/06/30 14:15:08;;;;;;;3.63;2.22;;;;;;;;;;5038206;27;92979;-72
2022/06/30 14:17:35;;;;;;;9.65;2.25;;;;;;;;;;5040554;27;94202;-71
2022/06/30 14:20:03;;;;;;;8.00;2.20;;;;;;;;;;5034538;27;92431;-70
2022/06/30 14:22:29;;;;;;;7.90;2.83;;;;;;;;;;5040097;27;95443;-70
2022/06/30 14:24:55;;;;;;;9.30;2.28;;;;;;;;;;5045802;27;94089;-70
2022/06/30 14:27:22;;;;;;;6.43;2.67;;;;;;;;;;5046455;27;92512;-70
2022/06/30 14:29:48;;;;;;;4.80;2.30;;;;;;;;;;5038101;27;93224;-71
2022/06/30 14:32:15;;;;;;;5.35;1.90;;;;;;;;;;5037413;27;92459;-72
2022/06/30 14:34:41;;;;;;;3.22;1.80;;;;;;;;;;5033489;27;93925;-72
2022/06/30 14:37:07;;;;;;;4.50;2.20;;;;;;;;;;5035358;27;94263;-72
2022/06/30 14:39:34;;;;;;;3.80;1.63;;;;;;;;;;5033959;27;91759;-72
2022/06/30 14:44:46;;;;;;;6.30;2.13;;;;;;;;;;5043756;27;93410;-72
2022/06/30 14:47:12;;;;;;;7.65;2.15;;;;;;;;;;5038936;27;94856;-72
2022/06/30 14:49:38;;;;;;;5.75;2.20;;;;;;;;;;5040024;27;93314;-72
2022/06/30 14:52:05;;;;;;;3.65;2.00;;;;;;;;;;5042769;27;92939;-72
2022/06/30 14:54:31;;;;;;;4.47;1.75;;;;;;;;;;5035538;27;94062;-72